Time;durP1;ratioP1;P1;durP2;ratioP2;P2;SDS_P1;SDS_P2;PMS_P1;PMS_P2;Temp;Humidity;BMP_temperature;BMP_pressure;BME280_temperature;BME280_humidity;BME280_pressure;Samples;Min_cycle;Max_cycle;Signal;HPM_P1;HPM_P2
2021/09/24 00:00:57;;;;;;;8.45;5.35;;;11.50;98.00;;;;;;5094428;28;20305;-71
2021/09/24 00:03:26;;;;;;;11.50;6.25;;;11.30;98.00;;;;;;5095905;28;20032;-69
2021/09/24 00:05:51;;;;;;;10.18;6.50;;;11.30;98.00;;;;;;5095102;28;20024;-70
2021/09/24 00:08:18;;;;;;;9.35;6.22;;;11.40;98.00;;;;;;5094986;28;20099;-69
2021/09/24 00:10:44;;;;;;;11.98;6.13;;;11.40;98.00;;;;;;5094327;28;20073;-70
2021/09/24 00:13:10;;;;;;;8.68;6.07;;;11.30;98.00;;;;;;5091524;28;20038;-69
2021/09/24 00:15:36;;;;;;;9.07;6.30;;;11.50;98.00;;;;;;5093921;28;20344;-69
2021/09/24 00:18:02;;;;;;;10.40;6.22;;;11.60;98.00;;;;;;5095594;28;20043;-69
2021/09/24 00:20:28;;;;;;;13.18;5.88;;;11.50;98.00;;;;;;5095605;28;20028;-68
2021/09/24 00:22:54;;;;;;;10.73;6.63;;;11.40;98.00;;;;;;5094742;28;20050;-71
2021/09/24 00:25:23;;;;;;;11.13;6.28;;;11.40;98.00;;;;;;5095339;28;20028;-70
2021/09/24 00:27:51;;;;;;;10.20;6.50;;;11.40;98.00;;;;;;5094212;28;20085;-70
2021/09/24 00:30:17;;;;;;;10.07;6.28;;;11.40;98.00;;;;;;5094078;28;20312;-70
2021/09/24 00:32:44;;;;;;;9.23;6.28;;;11.50;98.00;;;;;;5094411;28;20024;-71
2021/09/24 00:35:10;;;;;;;11.57;5.97;;;11.50;98.00;;;;;;5095003;28;20209;-70
2021/09/24 00:37:35;;;;;;;9.48;5.40;;;11.60;98.00;;;;;;5094747;28;20028;-70
2021/09/24 00:40:01;;;;;;;8.68;5.88;;;11.50;98.00;;;;;;5095439;28;20488;-69
2021/09/24 00:42:27;;;;;;;8.98;5.63;;;11.30;98.00;;;;;;5093884;28;20062;-70
2021/09/24 00:44:55;;;;;;;8.73;5.65;;;11.00;98.00;;;;;;5094946;28;20059;-69
2021/09/24 00:47:22;;;;;;;8.75;5.63;;;10.90;98.00;;;;;;5094772;28;20093;-69
2021/09/24 00:49:49;;;;;;;9.25;6.22;;;10.70;98.00;;;;;;5094773;28;20107;-70
2021/09/24 00:52:18;;;;;;;10.82;7.05;;;10.60;98.00;;;;;;5095543;28;20024;-70
2021/09/24 00:54:50;;;;;;;12.70;6.53;;;10.50;98.00;;;;;;5094351;28;20024;-70
2021/09/24 00:57:15;;;;;;;10.55;5.82;;;10.40;98.00;;;;;;5091200;28;20043;-70
2021/09/24 00:59:41;;;;;;;9.82;6.03;;;10.20;98.00;;;;;;5094917;28;20020;-70
2021/09/24 01:02:07;;;;;;;10.15;6.43;;;10.20;98.00;;;;;;5094899;28;20111;-71
2021/09/24 01:04:33;;;;;;;9.25;6.20;;;10.20;98.00;;;;;;5093984;28;20017;-69
2021/09/24 01:07:00;;;;;;;11.07;6.45;;;10.10;98.00;;;;;;5094874;28;20023;-70
2021/09/24 01:09:26;;;;;;;10.38;6.32;;;9.90;98.00;;;;;;5095007;28;20062;-69
2021/09/24 01:11:51;;;;;;;12.60;7.20;;;9.80;98.00;;;;;;5093792;28;20451;-70
2021/09/24 01:14:18;;;;;;;12.57;6.45;;;9.80;98.00;;;;;;5093938;28;20036;-71
2021/09/24 01:16:44;;;;;;;11.85;7.38;;;9.90;98.00;;;;;;5094163;28;20039;-69
2021/09/24 01:19:10;;;;;;;11.63;6.95;;;10.00;97.50;;;;;;5095115;28;20424;-70
2021/09/24 01:21:41;;;;;;;9.65;5.90;;;10.00;98.00;;;;;;5095106;28;20032;-70
2021/09/24 01:24:07;;;;;;;10.85;6.35;;;9.80;98.00;;;;;;5094988;28;20145;-70
2021/09/24 01:26:32;;;;;;;11.10;6.72;;;9.70;98.00;;;;;;5092825;28;20028;-70
2021/09/24 01:28:59;;;;;;;10.52;6.40;;;9.70;98.00;;;;;;5094224;28;20268;-70
2021/09/24 01:31:25;;;;;;;12.95;7.38;;;9.70;97.90;;;;;;5093351;28;20024;-70
2021/09/24 01:33:54;;;;;;;12.07;7.13;;;9.90;97.50;;;;;;5094508;28;20024;-71
2021/09/24 01:36:20;;;;;;;11.68;7.57;;;10.10;97.50;;;;;;5094334;28;20058;-70
2021/09/24 01:38:45;;;;;;;11.65;6.85;;;10.20;97.10;;;;;;5094445;28;20407;-69
2021/09/24 01:41:11;;;;;;;10.32;7.15;;;10.30;98.00;;;;;;5092134;28;20024;-70
2021/09/24 01:43:37;;;;;;;10.25;6.82;;;10.30;98.00;;;;;;5094666;28;20024;-70
2021/09/24 01:46:04;;;;;;;10.63;7.00;;;10.20;98.00;;;;;;5089158;28;20020;-70
2021/09/24 01:48:30;;;;;;;11.30;6.30;;;10.40;98.00;;;;;;5094772;28;20107;-69
2021/09/24 01:50:58;;;;;;;9.35;6.40;;;10.20;98.00;;;;;;5096979;28;20154;-69
2021/09/24 01:53:24;;;;;;;10.20;6.50;;;9.80;98.00;;;;;;5097335;28;20371;-70
2021/09/24 01:55:50;;;;;;;9.63;6.70;;;9.70;98.00;;;;;;5096357;28;20036;-69
2021/09/24 01:58:16;;;;;;;11.25;7.72;;;9.60;98.00;;;;;;5103404;28;20035;-69
2021/09/24 02:00:42;;;;;;;10.38;7.03;;;9.50;97.60;;;;;;5101595;28;20621;-70
2021/09/24 02:03:08;;;;;;;10.80;7.25;;;9.50;98.00;;;;;;5098060;28;20051;-70
2021/09/24 02:05:33;;;;;;;10.77;6.97;;;9.50;97.30;;;;;;5098268;28;20020;-70
2021/09/24 02:07:59;;;;;;;11.35;7.35;;;9.40;97.40;;;;;;5098233;28;20034;-70
2021/09/24 02:10:25;;;;;;;12.48;7.40;;;9.30;97.40;;;;;;5098036;28;20024;-70
2021/09/24 02:12:51;;;;;;;10.25;7.05;;;9.30;97.10;;;;;;5096715;28;20016;-70
2021/09/24 02:15:16;;;;;;;11.52;7.30;;;9.30;97.00;;;;;;5097048;28;20024;-69
2021/09/24 02:17:43;;;;;;;13.50;8.02;;;9.20;96.70;;;;;;5093479;28;20044;-70
2021/09/24 02:20:09;;;;;;;12.65;7.70;;;9.20;96.30;;;;;;5098087;28;20040;-71
2021/09/24 02:22:36;;;;;;;12.73;7.70;;;9.30;96.20;;;;;;5096565;28;20024;-70
2021/09/24 02:25:01;;;;;;;15.60;8.65;;;9.20;96.10;;;;;;5097803;28;20302;-69
2021/09/24 02:27:27;;;;;;;12.45;7.65;;;9.20;95.60;;;;;;5096030;28;20031;-69
2021/09/24 02:29:53;;;;;;;14.25;8.52;;;9.30;95.40;;;;;;5097044;28;20036;-69
2021/09/24 02:32:18;;;;;;;11.48;7.50;;;9.30;95.40;;;;;;5096612;28;20035;-68
2021/09/24 02:34:44;;;;;;;10.57;7.10;;;9.20;95.30;;;;;;5097447;28;20036;-69
2021/09/24 02:37:10;;;;;;;13.02;8.40;;;9.30;95.10;;;;;;5096801;28;20028;-69
2021/09/24 02:39:35;;;;;;;14.48;8.43;;;9.20;95.30;;;;;;5097638;28;20489;-69
2021/09/24 02:42:01;;;;;;;12.60;7.97;;;9.20;94.80;;;;;;5093318;28;20078;-69
2021/09/24 02:44:27;;;;;;;12.43;7.93;;;9.30;94.70;;;;;;5097556;28;20032;-69
2021/09/24 02:46:52;;;;;;;11.63;7.72;;;9.20;95.10;;;;;;5097154;28;20035;-69
2021/09/24 02:49:18;;;;;;;10.63;7.10;;;9.20;94.70;;;;;;5097845;28;20030;-71
2021/09/24 02:51:44;;;;;;;13.80;7.90;;;9.20;94.50;;;;;;5097918;28;20137;-70
2021/09/24 02:54:09;;;;;;;13.60;7.05;;;9.10;94.90;;;;;;5096539;28;20386;-71
2021/09/24 02:56:35;;;;;;;14.05;7.60;;;9.00;95.40;;;;;;5095857;28;20028;-70
2021/09/24 02:59:04;;;;;;;11.88;7.78;;;8.80;94.40;;;;;;5096931;28;20027;-70
2021/09/24 03:01:29;;;;;;;12.23;7.60;;;8.90;94.20;;;;;;5096406;28;20382;-70
2021/09/24 03:03:55;;;;;;;13.15;8.38;;;9.00;94.50;;;;;;5096620;28;20028;-70
2021/09/24 03:06:23;;;;;;;12.75;8.00;;;8.90;94.40;;;;;;5096539;28;20081;-69
2021/09/24 03:08:49;;;;;;;14.02;7.72;;;8.90;93.90;;;;;;5095428;28;20028;-69
2021/09/24 03:11:15;;;;;;;13.55;8.00;;;8.90;94.20;;;;;;5094816;28;20080;-68
2021/09/24 03:13:40;;;;;;;13.60;8.48;;;8.90;94.00;;;;;;5096888;28;20031;-68
2021/09/24 03:16:06;;;;;;;12.27;8.10;;;8.80;94.20;;;;;;5096497;28;20078;-71
2021/09/24 03:18:32;;;;;;;11.80;7.43;;;8.80;94.20;;;;;;5096751;28;20055;-71
2021/09/24 03:20:57;;;;;;;13.52;8.15;;;8.80;93.80;;;;;;5097288;28;20051;-71
2021/09/24 03:23:23;;;;;;;13.68;8.25;;;8.80;93.90;;;;;;5096235;28;20028;-70
2021/09/24 03:25:52;;;;;;;13.38;9.18;;;8.70;94.20;;;;;;5095602;28;20020;-70
2021/09/24 03:28:18;;;;;;;12.07;7.88;;;8.80;93.30;;;;;;5076597;28;20024;-71
2021/09/24 03:30:44;;;;;;;11.38;7.65;;;8.80;93.70;;;;;;5083414;28;20060;-71
2021/09/24 03:33:10;;;;;;;13.85;9.18;;;8.70;93.70;;;;;;5090379;28;20043;-70
2021/09/24 03:35:36;;;;;;;15.05;8.95;;;8.80;92.70;;;;;;5096721;28;20040;-70
2021/09/24 03:38:02;;;;;;;13.40;7.55;;;8.80;93.50;;;;;;5095783;28;20032;-69
2021/09/24 03:40:27;;;;;;;15.15;9.73;;;8.70;93.60;;;;;;5096266;28;20032;-69
2021/09/24 03:42:53;;;;;;;14.05;8.73;;;8.70;93.00;;;;;;5094978;28;20117;-69
2021/09/24 03:45:19;;;;;;;12.63;7.60;;;8.70;93.60;;;;;;5096158;28;20025;-69
2021/09/24 03:47:44;;;;;;;13.48;8.65;;;8.60;93.70;;;;;;5096494;28;20108;-70
2021/09/24 03:50:11;;;;;;;11.95;7.90;;;8.60;93.30;;;;;;5096458;28;20103;-70
2021/09/24 03:52:36;;;;;;;12.10;7.63;;;8.60;93.20;;;;;;5096519;28;20024;-70
2021/09/24 03:55:03;;;;;;;11.82;8.23;;;8.50;93.20;;;;;;5096249;28;20039;-71
2021/09/24 03:57:29;;;;;;;16.08;8.82;;;8.50;92.70;;;;;;5094395;28;20098;-70
2021/09/24 03:59:54;;;;;;;13.55;8.95;;;8.60;93.20;;;;;;5095998;28;20408;-69
2021/09/24 04:02:20;;;;;;;18.92;9.15;;;8.60;93.10;;;;;;5095536;28;20444;-70
2021/09/24 04:04:46;;;;;;;13.05;8.88;;;8.50;93.70;;;;;;5095732;28;20039;-70
2021/09/24 04:07:11;;;;;;;15.40;9.63;;;8.50;92.20;;;;;;5094928;28;20020;-69
2021/09/24 04:09:37;;;;;;;15.50;8.82;;;8.50;92.60;;;;;;5092681;28;20032;-70
2021/09/24 04:12:04;;;;;;;15.68;9.38;;;8.50;92.60;;;;;;5091166;28;20027;-70
2021/09/24 04:14:30;;;;;;;15.90;9.02;;;8.60;92.30;;;;;;5095290;28;20028;-70
2021/09/24 04:16:56;;;;;;;14.73;9.15;;;8.60;92.20;;;;;;5095515;28;20684;-70
2021/09/24 04:19:21;;;;;;;14.68;9.18;;;8.50;92.00;;;;;;5094962;28;20027;-70
2021/09/24 04:21:48;;;;;;;14.02;8.40;;;8.60;92.50;;;;;;5095455;28;20452;-70
2021/09/24 04:24:14;;;;;;;15.73;9.38;;;8.50;93.10;;;;;;5095324;28;20027;-70
2021/09/24 04:26:39;;;;;;;15.27;9.52;;;8.50;91.80;;;;;;5092649;28;20020;-70
2021/09/24 04:29:07;;;;;;;14.25;8.73;;;8.50;92.60;;;;;;5095475;28;20074;-69
2021/09/24 04:31:33;;;;;;;13.43;8.68;;;8.40;93.10;;;;;;5092407;28;20377;-70
2021/09/24 04:33:59;;;;;;;15.52;9.50;;;8.40;92.40;;;;;;5094481;28;20378;-69
2021/09/24 04:36:27;;;;;;;15.23;9.50;;;8.50;91.80;;;;;;5094981;28;20028;-70
2021/09/24 04:38:53;;;;;;;13.15;8.57;;;8.60;91.60;;;;;;5095478;28;20032;-69
2021/09/24 04:41:18;;;;;;;20.10;10.00;;;8.70;91.50;;;;;;5088746;28;20028;-70
2021/09/24 04:43:44;;;;;;;14.77;9.55;;;8.70;92.00;;;;;;5094360;28;20020;-71
2021/09/24 04:46:10;;;;;;;17.63;10.30;;;8.60;92.00;;;;;;5094598;28;20027;-70
2021/09/24 04:48:35;;;;;;;16.40;10.15;;;8.60;91.90;;;;;;5094635;28;20024;-70
2021/09/24 04:51:02;;;;;;;16.70;9.38;;;8.80;90.90;;;;;;5094572;28;20024;-71
2021/09/24 04:53:29;;;;;;;17.13;10.38;;;8.80;92.00;;;;;;5095138;28;20032;-69
2021/09/24 04:55:54;;;;;;;17.38;9.80;;;8.70;91.90;;;;;;5094072;28;20031;-69
2021/09/24 04:58:20;;;;;;;17.15;10.10;;;8.70;92.00;;;;;;5094101;28;20323;-70
2021/09/24 05:00:48;;;;;;;17.20;9.57;;;8.80;90.90;;;;;;5094282;28;20405;-70
2021/09/24 05:03:13;;;;;;;14.00;9.85;;;8.80;91.90;;;;;;5088953;28;20036;-69
2021/09/24 05:05:39;;;;;;;17.02;10.38;;;8.70;92.60;;;;;;5095093;28;20028;-70
2021/09/24 05:08:04;;;;;;;19.08;10.43;;;8.60;91.50;;;;;;5094600;28;20017;-69
2021/09/24 05:10:30;;;;;;;17.33;10.52;;;8.80;91.20;;;;;;5094217;28;20027;-70
2021/09/24 05:12:56;;;;;;;16.02;10.73;;;8.90;90.90;;;;;;5093408;28;20035;-70
2021/09/24 05:15:21;;;;;;;17.17;10.88;;;9.00;91.00;;;;;;5095383;28;20036;-70
2021/09/24 05:17:47;;;;;;;16.95;10.18;;;9.00;91.40;;;;;;5095494;28;20055;-70
2021/09/24 05:20:18;;;;;;;17.55;10.52;;;8.80;92.00;;;;;;5095358;28;20024;-70
2021/09/24 05:22:44;;;;;;;16.50;10.13;;;8.90;90.90;;;;;;5095462;28;20421;-69
2021/09/24 05:25:11;;;;;;;14.00;9.30;;;9.00;91.10;;;;;;5099322;28;20031;-70
2021/09/24 05:27:36;;;;;;;17.25;10.95;;;9.00;91.20;;;;;;5097365;28;20439;-70
2021/09/24 05:30:04;;;;;;;17.02;10.27;;;9.00;91.50;;;;;;5099064;28;20028;-71
2021/09/24 05:32:29;;;;;;;14.85;9.07;;;9.00;91.20;;;;;;5098516;28;20020;-70
2021/09/24 05:34:55;;;;;;;15.80;9.90;;;9.10;91.10;;;;;;5099176;28;20043;-71
2021/09/24 05:37:20;;;;;;;17.05;11.13;;;9.20;91.10;;;;;;5099039;28;20107;-71
2021/09/24 05:39:46;;;;;;;20.05;10.90;;;9.20;91.10;;;;;;5098373;28;20030;-71
2021/09/24 05:42:14;;;;;;;20.35;9.77;;;9.30;91.20;;;;;;5097762;28;20020;-70
2021/09/24 05:44:39;;;;;;;17.10;9.80;;;9.20;91.70;;;;;;5098853;28;20298;-69
2021/09/24 05:47:05;;;;;;;12.73;8.70;;;9.20;92.10;;;;;;5098964;28;20111;-70
2021/09/24 05:49:31;;;;;;;14.57;9.25;;;9.10;92.50;;;;;;5098935;28;20043;-71
2021/09/24 05:51:58;;;;;;;14.90;9.43;;;9.10;91.70;;;;;;5098698;28;20078;-71
2021/09/24 05:54:24;;;;;;;16.17;10.05;;;9.10;92.00;;;;;;5097363;28;20042;-71
2021/09/24 05:56:51;;;;;;;19.25;10.05;;;9.20;91.30;;;;;;5097376;28;20036;-70
2021/09/24 05:59:17;;;;;;;16.52;10.10;;;9.30;91.20;;;;;;5098567;28;20036;-70
2021/09/24 06:01:42;;;;;;;15.80;9.68;;;9.50;90.80;;;;;;5098683;28;20028;-69
2021/09/24 06:04:08;;;;;;;14.95;10.00;;;9.60;90.80;;;;;;5098101;28;20095;-68
2021/09/24 06:06:34;;;;;;;15.73;9.80;;;9.70;90.90;;;;;;5098586;28;20035;-69
2021/09/24 06:09:02;;;;;;;13.70;9.48;;;9.80;92.10;;;;;;5097313;28;20130;-68
2021/09/24 06:11:28;;;;;;;16.55;9.27;;;9.80;91.40;;;;;;5097444;28;20046;-70
2021/09/24 06:13:54;;;;;;;18.08;9.90;;;10.00;91.00;;;;;;5098094;28;20024;-71
2021/09/24 06:16:20;;;;;;;15.07;9.00;;;10.00;92.90;;;;;;5097927;28;20517;-71
2021/09/24 06:18:46;;;;;;;15.68;9.35;;;9.90;92.70;;;;;;5097922;28;20433;-70
2021/09/24 06:21:12;;;;;;;13.93;9.20;;;9.90;92.80;;;;;;5097978;28;20440;-70
2021/09/24 06:23:39;;;;;;;14.18;8.38;;;10.10;92.40;;;;;;5098305;28;20032;-71
2021/09/24 06:26:05;;;;;;;12.35;8.70;;;10.10;93.80;;;;;;5096908;28;20042;-70
2021/09/24 06:28:31;;;;;;;13.18;8.70;;;10.10;93.90;;;;;;5098181;28;20432;-70
2021/09/24 06:31:00;;;;;;;13.75;8.88;;;10.10;94.20;;;;;;5097396;28;20032;-70
2021/09/24 06:33:25;;;;;;;14.45;9.05;;;10.10;94.10;;;;;;5098114;28;20034;-71
2021/09/24 06:35:52;;;;;;;14.02;8.95;;;10.30;94.20;;;;;;5096963;28;20399;-71
2021/09/24 06:38:18;;;;;;;13.77;8.85;;;10.40;94.50;;;;;;5097874;28;20404;-70
2021/09/24 06:40:43;;;;;;;12.65;8.68;;;10.60;95.00;;;;;;5097341;28;20024;-70
2021/09/24 06:43:12;;;;;;;13.48;9.18;;;10.70;95.60;;;;;;5097230;28;20420;-70
2021/09/24 06:45:38;;;;;;;12.98;8.00;;;10.90;95.50;;;;;;5096460;28;20081;-70
2021/09/24 06:48:05;;;;;;;11.88;8.30;;;10.80;96.70;;;;;;5097808;28;20024;-70
2021/09/24 06:50:31;;;;;;;12.60;8.35;;;11.00;96.70;;;;;;5097736;28;20066;-70
2021/09/24 06:52:57;;;;;;;17.00;8.27;;;11.10;97.20;;;;;;5097688;28;20057;-70
2021/09/24 06:55:25;;;;;;;12.25;8.18;;;11.20;97.10;;;;;;5097475;28;20027;-71
2021/09/24 06:57:54;;;;;;;13.55;7.50;;;11.40;97.20;;;;;;5096456;28;20032;-71
2021/09/24 07:00:20;;;;;;;11.77;7.97;;;11.60;97.70;;;;;;5096958;28;20032;-70
2021/09/24 07:02:46;;;;;;;12.57;7.60;;;11.70;98.00;;;;;;5097658;28;20095;-70
2021/09/24 07:05:12;;;;;;;13.70;8.63;;;11.90;98.00;;;;;;5096782;28;20052;-71
2021/09/24 07:07:38;;;;;;;14.90;8.48;;;12.20;98.00;;;;;;5097643;28;20039;-70
2021/09/24 07:10:04;;;;;;;12.70;8.73;;;12.50;98.00;;;;;;5097268;28;20407;-70
2021/09/24 07:12:30;;;;;;;15.10;9.60;;;12.80;98.00;;;;;;5096264;28;20024;-71
2021/09/24 07:14:56;;;;;;;16.10;9.90;;;13.00;98.00;;;;;;5097045;28;20032;-70
2021/09/24 07:17:21;;;;;;;16.02;9.82;;;13.30;98.00;;;;;;5096411;28;20058;-71
2021/09/24 07:19:47;;;;;;;31.55;12.77;;;13.50;98.00;;;;;;5096973;28;20032;-70
2021/09/24 07:22:13;;;;;;;21.90;12.50;;;13.70;98.00;;;;;;5096933;28;20016;-70
2021/09/24 07:24:39;;;;;;;15.35;10.88;;;13.90;98.00;;;;;;5096622;28;20024;-70
2021/09/24 07:27:05;;;;;;;19.02;10.23;;;14.00;98.00;;;;;;5095753;28;20286;-70
2021/09/24 07:29:31;;;;;;;24.05;13.15;;;14.20;98.00;;;;;;5096653;28;20103;-71
2021/09/24 07:31:57;;;;;;;14.77;9.88;;;14.30;98.00;;;;;;5097065;28;20599;-70
2021/09/24 07:34:22;;;;;;;14.73;9.82;;;14.40;98.00;;;;;;5096674;28;20047;-71
2021/09/24 07:36:48;;;;;;;14.23;9.23;;;14.50;98.00;;;;;;5096839;28;20298;-70
2021/09/24 07:39:14;;;;;;;16.80;11.18;;;14.70;98.00;;;;;;5096426;28;20066;-70
2021/09/24 07:41:39;;;;;;;14.20;10.27;;;14.70;98.00;;;;;;5095289;28;20031;-71
2021/09/24 07:44:05;;;;;;;13.77;9.25;;;14.90;98.00;;;;;;5096889;28;20020;-69
2021/09/24 07:46:32;;;;;;;14.38;9.10;;;14.90;97.50;;;;;;5096167;28;20012;-71
2021/09/24 07:48:59;;;;;;;12.30;9.20;;;15.00;98.00;;;;;;5095865;28;20032;-70
2021/09/24 07:51:26;;;;;;;14.38;8.98;;;15.10;97.20;;;;;;5096521;28;20063;-71
2021/09/24 07:53:51;;;;;;;13.02;8.70;;;15.20;97.10;;;;;;5096218;28;20027;-71
2021/09/24 07:56:17;;;;;;;12.35;8.85;;;15.40;97.20;;;;;;5095031;28;20112;-70
2021/09/24 07:58:45;;;;;;;12.35;8.93;;;15.60;96.80;;;;;;5095752;28;20111;-70
2021/09/24 08:01:11;;;;;;;12.38;7.57;;;15.60;95.10;;;;;;5096158;28;20081;-70
2021/09/24 08:03:38;;;;;;;11.10;7.72;;;15.80;94.00;;;;;;5095905;28;20329;-71
2021/09/24 08:06:04;;;;;;;13.52;7.85;;;15.80;93.90;;;;;;5096347;28;20024;-71
2021/09/24 08:08:30;;;;;;;12.38;8.07;;;15.90;93.40;;;;;;5096351;28;20028;-71
2021/09/24 08:10:58;;;;;;;9.88;6.65;;;16.10;93.20;;;;;;5095005;28;20088;-70
2021/09/24 08:13:24;;;;;;;8.73;5.93;;;17.10;92.20;;;;;;5095127;28;20088;-70
2021/09/24 08:15:51;;;;;;;7.75;5.47;;;18.80;86.80;;;;;;5095951;28;20324;-71
2021/09/24 08:18:16;;;;;;;8.35;5.35;;;20.20;81.70;;;;;;5094626;28;20345;-70
2021/09/24 08:20:44;;;;;;;8.10;5.50;;;21.20;78.60;;;;;;5095812;28;20028;-71
2021/09/24 08:23:10;;;;;;;8.07;5.82;;;22.40;74.90;;;;;;5095590;28;20103;-71
2021/09/24 08:25:36;;;;;;;8.38;5.53;;;22.80;74.20;;;;;;5096005;28;20089;-71
2021/09/24 08:28:02;;;;;;;8.88;5.00;;;22.70;73.80;;;;;;5094934;28;20126;-71
2021/09/24 08:30:28;;;;;;;9.60;5.30;;;22.80;73.90;;;;;;5095738;28;20039;-71
2021/09/24 08:32:55;;;;;;;8.70;5.45;;;22.70;73.20;;;;;;5095705;28;20020;-71
2021/09/24 08:35:22;;;;;;;9.73;5.43;;;23.20;72.20;;;;;;5096061;28;20032;-71
2021/09/24 08:37:49;;;;;;;8.00;5.60;;;24.30;69.90;;;;;;5095716;28;20036;-70
2021/09/24 08:40:17;;;;;;;9.98;5.85;;;24.00;69.20;;;;;;5095897;28;20077;-70
2021/09/24 08:42:43;;;;;;;9.75;6.47;;;23.30;71.40;;;;;;5093205;28;20063;-71
2021/09/24 08:45:15;;;;;;;9.30;5.40;;;22.20;73.10;;;;;;5095776;28;20016;-70
2021/09/24 08:47:40;;;;;;;9.68;5.63;;;22.50;72.60;;;;;;5095197;28;20016;-69
2021/09/24 08:50:09;;;;;;;8.20;5.50;;;22.90;71.10;;;;;;5095233;28;20051;-70
2021/09/24 08:52:36;;;;;;;8.23;5.60;;;23.00;71.70;;;;;;5095665;28;20079;-70
2021/09/24 08:55:06;;;;;;;6.55;4.57;;;23.20;72.20;;;;;;5095457;28;20024;-69
2021/09/24 08:57:32;;;;;;;7.38;4.78;;;23.60;69.00;;;;;;5094403;28;20031;-68
2021/09/24 08:59:57;;;;;;;11.63;4.72;;;23.40;69.40;;;;;;5099476;28;20040;-68
2021/09/24 09:02:23;;;;;;;8.60;4.78;;;22.80;71.20;;;;;;5099753;28;20053;-68
2021/09/24 09:04:49;;;;;;;7.13;4.65;;;22.50;72.20;;;;;;5099378;28;20031;-68
2021/09/24 09:07:17;;;;;;;7.72;5.03;;;22.20;73.40;;;;;;5099487;28;20116;-70
2021/09/24 09:09:45;;;;;;;6.68;4.53;;;22.20;72.90;;;;;;5099507;28;20031;-70
2021/09/24 09:12:15;;;;;;;7.30;4.30;;;22.70;72.20;;;;;;5098594;28;20126;-71
2021/09/24 09:14:55;;;;;;;7.45;4.82;;;23.10;70.80;;;;;;5099205;28;20423;-72
2021/09/24 09:17:34;;;;;;;8.68;4.28;;;23.00;69.70;;;;;;5099426;28;20130;-70
2021/09/24 09:20:14;;;;;;;6.18;4.18;;;23.10;69.60;;;;;;5099227;28;20032;-69
2021/09/24 09:22:41;;;;;;;6.97;4.25;;;23.70;69.10;;;;;;5099242;28;20020;-69
2021/09/24 09:25:35;;;;;;;8.77;4.70;;;23.80;68.00;;;;;;5098052;28;20316;-69
2021/09/24 09:28:04;;;;;;;5.97;4.03;;;23.90;66.50;;;;;;5082270;28;20044;-70
2021/09/24 09:30:32;;;;;;;7.60;4.63;;;23.60;67.30;;;;;;5099404;28;20432;-70
2021/09/24 09:32:58;;;;;;;8.02;3.80;;;23.80;68.30;;;;;;5097828;28;20032;-69
2021/09/24 09:35:24;;;;;;;7.03;4.35;;;23.70;67.00;;;;;;5097997;28;20030;-70
2021/09/24 09:37:49;;;;;;;6.22;4.20;;;23.10;68.40;;;;;;5099118;28;20032;-69
2021/09/24 09:40:20;;;;;;;10.23;3.53;;;23.00;68.80;;;;;;5098039;28;20107;-69
2021/09/24 09:42:47;;;;;;;6.95;4.30;;;23.60;68.90;;;;;;5097835;28;20028;-69
2021/09/24 09:45:17;;;;;;;6.65;3.65;;;24.00;67.70;;;;;;5098190;28;20351;-69
2021/09/24 09:47:48;;;;;;;7.40;4.18;;;24.00;67.20;;;;;;5093237;28;20032;-69
2021/09/24 09:50:21;;;;;;;8.50;4.03;;;24.10;66.90;;;;;;5098511;28;20042;-70
2021/09/24 09:52:57;;;;;;;6.95;4.50;;;24.50;66.40;;;;;;5096933;28;20020;-70
2021/09/24 09:55:25;;;;;;;7.80;4.63;;;24.70;65.40;;;;;;5098971;28;20103;-70
2021/09/24 09:57:59;;;;;;;15.07;4.65;;;24.50;65.70;;;;;;5097394;28;20737;-70
2021/09/24 10:00:29;;;;;;;7.00;4.32;;;24.10;66.90;;;;;;5098615;28;20020;-70
2021/09/24 10:03:10;;;;;;;9.57;4.35;;;24.30;66.50;;;;;;5098241;28;20413;-70
2021/09/24 10:05:43;;;;;;;5.93;4.22;;;24.20;66.40;;;;;;5098724;28;20020;-69
2021/09/24 10:08:32;;;;;;;6.73;4.13;;;23.60;68.50;;;;;;5097004;28;20028;-70
2021/09/24 10:11:02;;;;;;;5.95;4.10;;;24.50;67.50;;;;;;5096731;28;20265;-70
2021/09/24 10:13:33;;;;;;;8.50;4.18;;;24.50;63.90;;;;;;5098695;28;20012;-70
2021/09/24 10:15:58;;;;;;;6.82;4.05;;;24.40;64.80;;;;;;5098001;28;20020;-70
2021/09/24 10:18:24;;;;;;;7.63;3.60;;;23.80;65.10;;;;;;5098236;28;20066;-69
2021/09/24 10:20:50;;;;;;;5.57;3.33;;;23.60;65.20;;;;;;5098730;28;20024;-71
2021/09/24 10:23:16;;;;;;;7.25;3.70;;;23.60;66.10;;;;;;5097739;28;20107;-70
2021/09/24 10:25:47;;;;;;;6.55;3.90;;;24.00;65.30;;;;;;5097955;28;20031;-70
2021/09/24 10:28:13;;;;;;;9.40;4.45;;;24.00;65.30;;;;;;5098133;28;20479;-70
2021/09/24 10:30:39;;;;;;;6.15;3.92;;;23.60;66.40;;;;;;5098216;28;20050;-70
2021/09/24 10:33:11;;;;;;;8.73;4.32;;;23.90;67.40;;;;;;5098132;28;20099;-69
2021/09/24 10:35:54;;;;;;;7.85;4.22;;;24.20;66.80;;;;;;5097850;28;20050;-70
2021/09/24 10:38:22;;;;;;;6.75;3.58;;;24.60;65.20;;;;;;5097688;28;20016;-70
2021/09/24 10:41:02;;;;;;;7.53;3.83;;;24.90;63.70;;;;;;5096954;28;20028;-70
2021/09/24 10:43:43;;;;;;;6.50;3.92;;;24.10;62.10;;;;;;5097984;28;20028;-70
2021/09/24 10:46:24;;;;;;;6.65;4.47;;;23.90;64.50;;;;;;5097283;28;20062;-70
2021/09/24 10:49:16;;;;;;;6.90;4.78;;;24.00;65.00;;;;;;5097835;28;20440;-70
2021/09/24 10:52:08;;;;;;;6.38;4.10;;;24.20;64.70;;;;;;5096645;28;20111;-70
2021/09/24 10:54:55;;;;;;;10.45;4.45;;;24.70;65.40;;;;;;5096523;28;20035;-69
2021/09/24 10:57:20;;;;;;;6.32;4.43;;;24.30;64.10;;;;;;5096264;28;20097;-69
2021/09/24 10:59:46;;;;;;;6.25;4.18;;;24.10;64.30;;;;;;5097607;28;20034;-70
2021/09/24 11:02:41;;;;;;;8.48;4.70;;;24.50;64.30;;;;;;5097517;28;20028;-70
2021/09/24 11:05:08;;;;;;;6.07;3.85;;;24.90;64.30;;;;;;5097066;28;20355;-69
2021/09/24 11:07:35;;;;;;;6.10;3.40;;;24.50;62.90;;;;;;5097486;28;20012;-69
2021/09/24 11:10:02;;;;;;;5.95;3.83;;;24.40;62.20;;;;;;5096631;28;20363;-70
2021/09/24 11:12:29;;;;;;;7.10;3.78;;;24.30;63.60;;;;;;5095718;28;20077;-70
2021/09/24 11:15:10;;;;;;;5.97;3.67;;;24.30;62.70;;;;;;5095583;28;20031;-71
2021/09/24 11:17:42;;;;;;;5.72;3.30;;;24.30;62.60;;;;;;5094307;28;20444;-70
2021/09/24 11:20:27;;;;;;;6.85;3.30;;;24.40;62.00;;;;;;5095584;28;20023;-70
2021/09/24 11:22:55;;;;;;;6.28;4.00;;;24.30;60.90;;;;;;5094680;28;20408;-69
2021/09/24 11:25:21;;;;;;;4.97;3.13;;;24.00;63.10;;;;;;5096606;28;20039;-69
2021/09/24 11:27:48;;;;;;;8.35;3.72;;;24.20;64.80;;;;;;5095756;28;20028;-70
2021/09/24 11:30:18;;;;;;;5.85;3.75;;;24.60;62.20;;;;;;5095736;28;20412;-70
2021/09/24 11:32:50;;;;;;;5.45;3.38;;;24.30;62.20;;;;;;5095621;28;20024;-70
2021/09/24 11:35:28;;;;;;;5.68;3.60;;;24.00;63.80;;;;;;5090042;28;20028;-69
2021/09/24 11:38:27;;;;;;;6.75;3.70;;;24.40;60.90;;;;;;5095883;28;20031;-70
2021/09/24 11:40:55;;;;;;;6.10;3.13;;;24.10;62.20;;;;;;5092349;28;20055;-69
2021/09/24 11:43:25;;;;;;;7.38;3.33;;;23.80;61.60;;;;;;5095135;28;20114;-70
2021/09/24 11:45:51;;;;;;;5.10;3.20;;;24.00;61.70;;;;;;5096596;28;20028;-70
2021/09/24 11:48:28;;;;;;;4.68;3.10;;;24.40;62.40;;;;;;5096229;28;20032;-68
2021/09/24 11:50:53;;;;;;;5.07;2.80;;;24.70;59.10;;;;;;5092611;28;20041;-69
2021/09/24 11:53:22;;;;;;;5.00;2.97;;;24.50;58.70;;;;;;5096016;28;20107;-68
2021/09/24 11:55:47;;;;;;;5.65;3.80;;;24.50;59.30;;;;;;5091929;28;20356;-69
2021/09/24 11:58:24;;;;;;;6.80;3.33;;;24.20;60.10;;;;;;5095978;28;20028;-68
2021/09/24 12:00:55;;;;;;;5.55;3.42;;;24.00;60.00;;;;;;5095747;28;20035;-68
2021/09/24 12:03:30;;;;;;;7.22;3.47;;;23.90;61.20;;;;;;5095861;28;20027;-68
2021/09/24 12:05:57;;;;;;;7.05;3.22;;;24.20;61.30;;;;;;5095118;28;20024;-69
2021/09/24 12:08:26;;;;;;;7.00;3.25;;;24.20;60.70;;;;;;5095653;28;20024;-69
2021/09/24 12:10:58;;;;;;;7.75;3.45;;;24.10;61.20;;;;;;5095051;28;20024;-68
2021/09/24 12:13:40;;;;;;;5.28;3.45;;;23.90;61.60;;;;;;5096186;28;20117;-68
2021/09/24 12:16:07;;;;;;;5.45;3.30;;;24.00;62.40;;;;;;5095028;28;20433;-69
2021/09/24 12:18:56;;;;;;;8.00;3.80;;;23.90;61.60;;;;;;5095600;28;20096;-70
2021/09/24 12:21:49;;;;;;;6.57;4.20;;;24.00;62.70;;;;;;5095856;28;20374;-69
2021/09/24 12:24:33;;;;;;;8.05;3.55;;;23.90;61.50;;;;;;5096025;28;20020;-68
2021/09/24 12:27:08;;;;;;;5.90;3.60;;;24.20;61.10;;;;;;5074615;28;20027;-69
2021/09/24 12:29:35;;;;;;;6.00;3.55;;;24.40;60.50;;;;;;5075615;28;20036;-70
2021/09/24 12:32:10;;;;;;;5.50;3.30;;;24.60;61.50;;;;;;5074620;28;20067;-68
2021/09/24 12:35:00;;;;;;;5.72;4.00;;;24.40;61.00;;;;;;5080392;28;20028;-68
2021/09/24 12:37:42;;;;;;;6.03;3.60;;;24.00;61.30;;;;;;5095588;28;20024;-69
2021/09/24 12:40:26;;;;;;;6.95;3.67;;;24.10;61.60;;;;;;5094609;28;20447;-68
2021/09/24 12:42:58;;;;;;;5.70;3.25;;;23.70;62.10;;;;;;5093616;28;20424;-68
2021/09/24 12:45:29;;;;;;;5.47;3.53;;;23.80;62.00;;;;;;5094592;28;20032;-70
2021/09/24 12:48:15;;;;;;;7.53;3.85;;;23.60;62.20;;;;;;5094807;28;20025;-68